Terminal Aerodrome Forecast
Issued by NWS

Home | Current Version | Previous Version | Text Only | Print | Product List | Glossary On
Versions: 1 2 3 4 5 6 7 8 9 10 11 12 13 14
000
FTUS46 KPDT 231154 AAA
TAFRDM
TAF AMD
KRDM 231154Z 2312/2412 17005KT 1 1/2SM -SN BR SCT013 OVC020
      TEMPO 2312/2316 2SM BR
     FM231600 VRB06KT 3SM -SHSN BR BKN015 OVC030
     FM232000 34007KT P6SM VCSH BKN050 BKN090
     FM240400 VRB06KT P6SM SCT050 BKN100=

USA.gov is the U.S. government's official web portal to all federal, state and local government web resources and services.